Sugarloaf Regional (B21)
Carrabassett, ME
Field Elevation: 885
Lat: 45°05.12N  Long: 70°12.98W
CTAF/Unicom Freq: 122.8000
   
    
Weather Advisories
4/19/2014 17:01 Z
Altimeter 30.18" Hg
Wind 010° @ 8 KT
Gusts --
Visibility 10 SM
Temperature 5° C (41° F)
Dewpoint -2° C (28° F)
Relative Humidity 61%
Density Altitude --
Condensation Altitude 4,200 feet
Wind Chill 2° C (36° F)
  Wind and Runways
Indicated Runway = 35
History
 
 
More Info
All DigiWx sites map
 
NOAA Forecast
 
Airport IQ 5010
(39N) Princeton, NJ
(PN44) Upper Gwynedd Heliport
 
about DigiWx
 
FAA Disclaimer: The data displayed is for advisory purposes only and is not to be used for flight planning or operations. For official data, please call (not available) to hear the current automated AWOS voice message.
  METAR B21 191701Z AUTO 01008KT 10SM 05/M02 A3018